Keesler Air Force Base
KBIX : rendu visible

Aérodrome :











RETROUVEZ-NOUS SUR...

 
LOGIN :

S'inscrire | Disclaimer

   EN    FR    IT 

 









Légende :    VFR   VFR Marginal   IFR   IFR Intensif   IFR Très Intensif
Visi : 
Plafond : 
>= 8 km
>= 3000ft
5 à 8 km
1000 à 3000 ft
1500m à 5 km
500 à 1000 ft
800 à 1500m
200 à 500 ft
< 800m
< 200 ft
Symboles :   Orages  Brouillard  Fortes neiges  Fortes précipitations  Vent > 20 kt






- Altitude de l'aérodrome : 33 ft


KBIX - Keesler Air Force Base

DERNIER METAR :
  • 121856Z AUTO 22010KT 10SM FEW190 34/27 A2987 RMK AO2 SLP118 T03360266

METARs EXPIRÉS :
  • 121756Z AUTO 19009KT 10SM FEW180 FEW200 33/26 A2990 RMK AO2 SLP128 T03310256 10331 20256 58007
  • 121656Z AUTO 21009KT 10SM CLR 32/25 A2991 RMK AO2 SLP131 T03210246

Prévision TAF périmée.
FIR KZHU / Amérique du Nord



MET'MAP, la Météo Aéronautique d'un coup d'oeil ! - Copyright ORBIFLY Décembre 2007 - Disclaimer

ORBIFLY MET'MAP TEAM :

Programmation & Développement : Alexandra Zaïnal
Sur une idée originale de : Baudouin d'Aumeries
Assistance à la programmation : Marc-Olivier Méhu
Soutien technique & logistique : Manuel Goepfert

Contact : metmap@orbifly.com




SOURCES & CREDITS :

   NOAA       Earth
Advisory